Terminal Aerodrome Forecast
Issued by NWS Mt. Holly, NJ

Home | Current Version | Previous Version | Text Only | Print | Product List | Glossary On
Versions: 1 2 3 4 5 6 7 8 9 10 11 12 13 14 15 16 17 18 19 20
000
FTUS41 KPHI 221347 AAB
TAFACY
TAF AMD
KACY 221347Z 2214/2312 00000KT 1/4SM FG VV002
      TEMPO 2214/2216 3SM BR SCT002
     FM221600 14007KT P6SM SCT250
     FM230200 14003KT P6SM BKN020
     FM230400 VRB02KT P6SM BKN010
     FM230600 VRB02KT 2SM BR BKN008=

USA.gov is the U.S. government's official web portal to all federal, state and local government web resources and services.